LFMD/CEQ METAR and TAF weather

Enter ICAO airport designator
Station Type Date Time Source
LFMD METAR 2022/09/28 19:30 UTC NOAA

LFMD 281930Z AUTO 27010KT 220V330 CAVOK 20/11 Q1000 NOSIG


Station Type Date Time Source
LFMD Decoded METAR 2022/09/28 19:30 UTC NOAA

Cannes, France (LFMD) 43-33N 006-57E 9M
Sep 28, 2022 - 03:30 PM EDT / 2022.09.28 1930 UTC
Wind: from the W (270 degrees) at 12 MPH (10 KT) (direction variable):0
Visibility: greater than 7 mile(s):0
Temperature: 68 F (20 C)
Dew Point: 51 F (11 C)
Relative Humidity: 56%
Pressure (altimeter): 29.53 in. Hg (1000 hPa)
ob: LFMD 281930Z AUTO 27010KT 220V330 CAVOK 20/11 Q1000 NOSIG
cycle: 19

Station Type Date Time Source
LFMD TAF 2022/09/28 15:21 UTC NOAA

TAF LFMD 281400Z 2815/2915 26012KT CAVOK

Example: see airport list